createdAt,value
2023-04-18T00:01:19.260Z,11.81
2023-04-18T00:03:47.681Z,11.83
2023-04-18T00:06:16.119Z,11.88
2023-04-18T00:08:45.911Z,11.75
2023-04-18T00:11:14.324Z,11.66
2023-04-18T00:13:42.548Z,11.84
2023-04-18T00:16:13.441Z,11.91
2023-04-18T00:18:41.994Z,11.82
2023-04-18T00:21:10.202Z,10.71
2023-04-18T00:23:38.731Z,11.80
2023-04-18T00:26:08.460Z,11.84
2023-04-18T00:28:36.732Z,11.73
2023-04-18T00:31:05.137Z,11.50
2023-04-18T00:33:33.727Z,11.72
2023-04-18T00:36:02.054Z,11.70
2023-04-18T00:38:30.293Z,11.69
2023-04-18T00:40:58.563Z,11.60
2023-04-18T00:43:28.396Z,11.67
2023-04-18T00:45:57.265Z,11.65
2023-04-18T00:48:26.002Z,11.40
2023-04-18T00:50:55.493Z,11.54
2023-04-18T00:53:24.126Z,11.56
2023-04-18T00:55:52.759Z,10.99
2023-04-18T00:58:21.786Z,11.14
2023-04-18T01:00:52.276Z,11.55
2023-04-18T01:03:22.972Z,10.74
2023-04-18T01:05:51.560Z,11.33
2023-04-18T01:08:20.671Z,11.07
2023-04-18T01:10:49.094Z,10.72
2023-04-18T01:13:18.943Z,11.47
2023-04-18T01:15:48.712Z,11.34
2023-04-18T01:18:19.314Z,11.22
2023-04-18T01:20:49.280Z,11.32
2023-04-18T01:23:19.003Z,11.21
2023-04-18T01:25:50.663Z,11.14
2023-04-18T01:28:21.426Z,11.30
2023-04-18T01:30:49.712Z,11.09
2023-04-18T01:33:18.118Z,9.84
2023-04-18T01:35:46.800Z,11.32
2023-04-18T01:38:15.032Z,11.29
2023-04-18T01:40:43.440Z,10.93
2023-04-18T01:43:13.150Z,11.01
2023-04-18T01:45:41.531Z,11.25
2023-04-18T01:48:09.828Z,10.79
2023-04-18T01:50:38.108Z,11.24
2023-04-18T01:53:06.422Z,11.20
2023-04-18T01:55:34.916Z,11.31
2023-04-18T01:58:03.207Z,11.41
2023-04-18T02:00:32.907Z,10.99
2023-04-18T02:03:01.481Z,11.38
2023-04-18T02:05:30.016Z,11.46
2023-04-18T02:07:58.361Z,11.47
2023-04-18T02:10:26.675Z,11.47
2023-04-18T02:12:54.930Z,11.03
2023-04-18T02:15:25.329Z,11.35
2023-04-18T02:17:55.503Z,11.20
2023-04-18T02:20:26.275Z,11.36
2023-04-18T02:22:54.581Z,11.39
2023-04-18T02:25:27.032Z,11.70
2023-04-18T02:27:55.432Z,11.67
2023-04-18T02:30:24.397Z,11.71
2023-04-18T02:32:53.453Z,11.03
2023-04-18T02:35:23.385Z,11.51
2023-04-18T02:37:54.014Z,11.51
2023-04-18T02:40:22.322Z,11.45
2023-04-18T02:42:50.593Z,11.37
2023-04-18T02:45:19.306Z,9.49
2023-04-18T02:47:55.274Z,11.04
2023-04-18T02:50:27.187Z,10.80
2023-04-18T02:52:59.120Z,11.27
2023-04-18T02:55:27.868Z,11.22
2023-04-18T02:57:56.090Z,11.29
2023-04-18T03:00:24.637Z,11.10
2023-04-18T03:02:53.504Z,11.28
2023-04-18T03:05:22.971Z,9.50
2023-04-18T03:07:52.644Z,10.91
2023-04-18T03:10:21.153Z,10.90
2023-04-18T03:12:49.404Z,10.89
2023-04-18T03:15:17.743Z,10.78
2023-04-18T03:17:46.064Z,10.70
2023-04-18T03:20:14.661Z,10.76
2023-04-18T03:22:42.975Z,10.75
2023-04-18T03:25:13.055Z,10.69
2023-04-18T03:27:42.934Z,10.75
2023-04-18T03:30:11.579Z,10.75
2023-04-18T03:32:39.927Z,10.65
2023-04-18T03:35:08.481Z,10.11
2023-04-18T03:37:36.817Z,10.23
2023-04-18T03:40:05.585Z,10.49
2023-04-18T03:42:35.314Z,10.59
2023-04-18T03:45:03.767Z,10.66
2023-04-18T03:47:33.651Z,10.56
2023-04-18T03:50:02.074Z,10.64
2023-04-18T03:52:30.412Z,10.04
2023-04-18T03:54:58.958Z,10.56
2023-04-18T03:57:27.303Z,10.50
2023-04-18T03:59:57.078Z,10.46
2023-04-18T04:02:25.625Z,10.45
2023-04-18T04:04:54.033Z,10.26
2023-04-18T04:07:22.346Z,10.06
2023-04-18T04:09:50.650Z,10.47
2023-04-18T04:12:19.038Z,10.55
2023-04-18T04:14:47.326Z,10.39
2023-04-18T04:17:17.441Z,10.27
2023-04-18T04:19:45.709Z,10.59
2023-04-18T04:22:13.978Z,10.44
2023-04-18T04:24:43.051Z,8.78
2023-04-18T04:27:12.743Z,10.47
2023-04-18T04:29:41.505Z,10.62
2023-04-18T04:32:09.828Z,10.66
2023-04-18T04:34:41.529Z,10.40
2023-04-18T04:37:09.901Z,10.63
2023-04-18T04:39:38.113Z,10.60
2023-04-18T04:42:06.461Z,10.60
2023-04-18T04:44:35.731Z,10.57
2023-04-18T04:47:04.017Z,10.51
2023-04-18T04:49:32.399Z,10.49
2023-04-18T04:52:02.898Z,10.63
2023-04-18T04:54:31.430Z,10.67
2023-04-18T04:56:59.664Z,10.61
2023-04-18T04:59:29.990Z,10.71
2023-04-18T05:01:58.743Z,10.50
2023-04-18T05:04:27.155Z,10.72
2023-04-18T05:06:55.673Z,10.74
2023-04-18T05:09:26.275Z,10.74
2023-04-18T05:11:54.548Z,10.74
2023-04-18T05:14:22.804Z,10.68
2023-04-18T05:16:51.093Z,10.80
2023-04-18T05:19:19.458Z,10.90
2023-04-18T05:21:47.741Z,10.90
2023-04-18T05:24:16.217Z,11.04
2023-04-18T05:26:46.325Z,10.58
2023-04-18T05:29:14.516Z,11.09
2023-04-18T05:31:42.791Z,11.25
2023-04-18T05:34:11.126Z,11.33
2023-04-18T05:36:39.460Z,11.47
2023-04-18T05:39:08.248Z,11.72
2023-04-18T05:41:36.530Z,12.02
2023-04-18T05:44:06.391Z,12.30
2023-04-18T05:46:34.953Z,12.39
2023-04-18T05:49:03.875Z,12.63
2023-04-18T05:51:32.364Z,12.76
2023-04-18T05:54:00.604Z,12.61
2023-04-18T05:56:29.012Z,12.98
2023-04-18T05:58:57.886Z,12.99
2023-04-18T06:01:27.699Z,13.11
2023-04-18T06:03:56.728Z,13.14
2023-04-18T06:06:24.838Z,13.17
2023-04-18T06:08:55.382Z,13.26
2023-04-18T06:11:23.504Z,13.27
2023-04-18T06:13:51.512Z,13.41
2023-04-18T06:16:19.622Z,13.37
2023-04-18T06:18:49.535Z,13.23
2023-04-18T06:21:17.988Z,13.39
2023-04-18T06:23:46.420Z,12.83
2023-04-18T06:26:15.342Z,13.39
2023-04-18T06:28:43.709Z,13.44
2023-04-18T06:31:13.383Z,13.23
2023-04-18T06:33:42.048Z,13.43
2023-04-18T06:36:12.092Z,13.40
2023-04-18T06:38:40.334Z,13.38
2023-04-18T06:41:08.580Z,10.96
2023-04-18T06:43:37.582Z,13.41
2023-04-18T06:46:06.676Z,13.59
2023-04-18T06:48:35.040Z,13.52
2023-04-18T06:51:03.458Z,13.73
2023-04-18T06:53:34.333Z,13.42
2023-04-18T06:56:02.729Z,13.89
2023-04-18T06:58:31.294Z,13.31
2023-04-18T07:00:59.570Z,14.00
2023-04-18T07:03:27.971Z,14.06
2023-04-18T07:05:56.946Z,14.16
2023-04-18T07:08:25.193Z,14.16
2023-04-18T07:10:54.934Z,14.25
2023-04-18T07:13:23.279Z,14.12
2023-04-18T07:15:51.606Z,13.77
2023-04-18T07:18:30.343Z,14.31
2023-04-18T07:21:03.136Z,13.86
2023-04-18T07:23:31.435Z,14.43
2023-04-18T07:26:02.780Z,14.46
2023-04-18T07:28:32.435Z,14.74
2023-04-18T07:31:01.419Z,14.84
2023-04-18T07:33:31.867Z,14.93
2023-04-18T07:36:00.253Z,14.87
2023-04-18T07:38:29.043Z,15.08
2023-04-18T07:41:03.270Z,15.11
2023-04-18T07:43:31.609Z,15.33
2023-04-18T07:46:00.239Z,15.28
2023-04-18T07:48:28.773Z,15.18
2023-04-18T07:50:57.075Z,15.31
2023-04-18T07:53:25.596Z,15.13
2023-04-18T07:55:54.513Z,15.52
2023-04-18T07:58:24.192Z,15.49
2023-04-18T08:00:52.486Z,15.62
2023-04-18T08:03:21.110Z,15.69
2023-04-18T08:05:50.295Z,15.84
2023-04-18T08:08:18.917Z,15.84
2023-04-18T08:10:47.216Z,15.71
2023-04-18T08:13:15.651Z,15.67
2023-04-18T08:15:45.543Z,15.60
2023-04-18T08:18:13.814Z,15.21
2023-04-18T08:20:42.113Z,15.12
2023-04-18T08:23:12.772Z,15.50
2023-04-18T08:25:41.387Z,15.63
2023-04-18T08:28:10.113Z,15.56
2023-04-18T08:30:38.726Z,15.56
2023-04-18T08:33:08.456Z,15.54
2023-04-18T08:35:36.982Z,15.55
2023-04-18T08:38:05.295Z,15.52
2023-04-18T08:40:33.723Z,15.46
2023-04-18T08:43:05.142Z,15.41
2023-04-18T08:45:33.548Z,15.39
2023-04-18T08:48:03.903Z,15.28
2023-04-18T08:50:33.865Z,15.11
2023-04-18T08:53:02.399Z,14.97
2023-04-18T08:55:30.795Z,15.06
2023-04-18T08:57:59.790Z,14.59
2023-04-18T09:00:29.410Z,14.14
2023-04-18T09:02:57.988Z,14.62
2023-04-18T09:05:28.134Z,14.85
2023-04-18T09:07:58.162Z,14.88
2023-04-18T09:10:29.128Z,14.77
2023-04-18T09:12:59.204Z,14.14
2023-04-18T09:15:29.530Z,14.83
2023-04-18T09:18:00.104Z,14.13
2023-04-18T09:20:34.995Z,14.69
2023-04-18T09:23:06.578Z,14.54
2023-04-18T09:25:40.154Z,14.43
2023-04-18T09:28:24.564Z,14.38
2023-04-18T09:30:53.404Z,14.02
2023-04-18T09:33:28.373Z,14.82
2023-04-18T09:35:57.354Z,15.12
2023-04-18T09:41:21.543Z,15.42
2023-04-18T09:43:50.120Z,15.30
2023-04-18T09:46:18.859Z,15.46
2023-04-18T09:48:47.360Z,15.42
2023-04-18T09:51:17.200Z,15.41
2023-04-18T09:53:47.938Z,15.79
2023-04-18T09:56:26.192Z,15.98
2023-04-18T09:58:58.773Z,15.67
2023-04-18T10:01:29.834Z,15.10
2023-04-18T10:03:59.174Z,15.42
2023-04-18T10:06:29.916Z,15.66
2023-04-18T10:08:58.566Z,15.64
2023-04-18T10:11:28.886Z,15.93
2023-04-18T10:13:59.954Z,15.61
2023-04-18T10:16:29.640Z,15.72
2023-04-18T10:18:58.521Z,15.54
2023-04-18T10:21:29.993Z,15.35
2023-04-18T10:23:58.308Z,15.28
2023-04-18T10:26:50.520Z,15.20
2023-04-18T10:29:19.088Z,15.33
2023-04-18T10:31:48.491Z,15.50
2023-04-18T10:34:19.818Z,15.59
2023-04-18T10:37:06.480Z,15.60
2023-04-18T10:39:50.033Z,15.69
2023-04-18T10:42:20.054Z,15.97
2023-04-18T10:45:23.546Z,16.12
2023-04-18T10:47:52.162Z,16.28
2023-04-18T10:50:20.429Z,16.33
2023-04-18T10:52:48.756Z,16.26
2023-04-18T10:55:20.220Z,16.06
2023-04-18T10:57:51.996Z,15.75
2023-04-18T11:00:22.094Z,15.46
2023-04-18T11:02:53.800Z,15.52
2023-04-18T11:05:24.817Z,15.20
2023-04-18T11:07:53.456Z,15.25
2023-04-18T11:10:25.005Z,15.25
2023-04-18T11:12:57.536Z,15.33
2023-04-18T11:15:29.138Z,15.37
2023-04-18T11:18:00.930Z,15.39
2023-04-18T11:20:30.093Z,14.93
2023-04-18T11:23:00.455Z,15.40
2023-04-18T11:25:30.883Z,15.39
2023-04-18T11:28:02.518Z,15.40
2023-04-18T11:30:38.680Z,15.46
2023-04-18T11:33:08.912Z,15.38
2023-04-18T11:35:41.348Z,15.10
2023-04-18T11:38:10.840Z,15.14
2023-04-18T11:40:39.471Z,14.95
2023-04-18T11:43:09.264Z,14.99
2023-04-18T11:45:37.518Z,15.01
2023-04-18T11:48:06.304Z,15.01
2023-04-18T11:50:38.388Z,15.01
2023-04-18T11:53:07.079Z,15.10
2023-04-18T11:55:35.552Z,15.18
2023-04-18T11:58:04.511Z,15.26
2023-04-18T12:00:36.244Z,15.27
2023-04-18T12:03:07.303Z,15.30
2023-04-18T12:05:38.137Z,15.07
2023-04-18T12:08:08.252Z,15.21
2023-04-18T12:10:37.381Z,15.21
2023-04-18T12:13:08.777Z,15.29
2023-04-18T12:15:40.653Z,15.50
2023-04-18T12:18:09.613Z,15.66
2023-04-18T12:20:39.971Z,15.70
2023-04-18T12:23:08.785Z,15.86
2023-04-18T12:25:37.581Z,15.51
2023-04-18T12:28:17.043Z,16.05
2023-04-18T12:30:46.694Z,16.13
2023-04-18T12:33:15.121Z,15.89
2023-04-18T12:35:43.403Z,16.21
2023-04-18T12:38:11.756Z,16.13
2023-04-18T12:40:41.039Z,16.00
2023-04-18T12:43:09.448Z,16.10
2023-04-18T12:45:37.673Z,16.03
2023-04-18T12:48:07.868Z,15.57
2023-04-18T12:50:36.256Z,15.29
2023-04-18T12:53:04.556Z,15.73
2023-04-18T12:55:33.022Z,15.43
2023-04-18T12:58:01.617Z,15.44
2023-04-18T13:00:31.931Z,15.21
2023-04-18T13:03:00.932Z,15.22
2023-04-18T13:05:33.426Z,15.44
2023-04-18T13:10:34.006Z,15.84
2023-04-18T13:13:02.499Z,16.03
2023-04-18T13:15:31.108Z,15.08
2023-04-18T13:18:04.818Z,16.26
2023-04-18T13:20:36.063Z,16.49
2023-04-18T13:23:04.635Z,16.53
2023-04-18T13:25:33.035Z,16.76
2023-04-18T13:28:01.544Z,16.99
2023-04-18T13:30:29.801Z,16.98
2023-04-18T13:32:58.136Z,17.06
2023-04-18T13:35:40.163Z,17.01
2023-04-18T13:38:11.199Z,16.46
2023-04-18T13:40:39.878Z,16.57
2023-04-18T13:43:08.221Z,16.70
2023-04-18T13:45:36.494Z,16.63
2023-04-18T13:48:05.153Z,16.43
2023-04-18T13:50:33.529Z,16.42
2023-04-18T13:53:01.886Z,16.22
2023-04-18T13:55:32.065Z,16.25
2023-04-18T13:58:00.828Z,16.12
2023-04-18T14:00:30.420Z,16.03
2023-04-18T14:02:58.825Z,15.97
2023-04-18T14:05:27.481Z,16.11
2023-04-18T14:08:02.045Z,15.88
2023-04-18T14:10:32.437Z,16.08
2023-04-18T14:13:00.902Z,15.94
2023-04-18T14:15:29.348Z,16.05
2023-04-18T14:17:57.826Z,15.82
2023-04-18T14:20:26.864Z,15.78
2023-04-18T14:22:55.232Z,15.78
2023-04-18T14:25:24.018Z,15.70
2023-04-18T14:28:05.773Z,15.13
2023-04-18T14:30:34.182Z,15.43
2023-04-18T14:33:04.553Z,15.32
2023-04-18T14:35:33.802Z,14.84
2023-04-18T14:38:04.471Z,14.77
2023-04-18T14:40:33.113Z,15.02
2023-04-18T14:43:03.957Z,14.92
2023-04-18T14:45:35.071Z,14.84
2023-04-18T14:48:03.900Z,14.79
2023-04-18T14:50:32.578Z,14.67
2023-04-18T14:53:01.564Z,14.67
2023-04-18T14:55:30.349Z,14.33
2023-04-18T14:57:59.656Z,14.76
2023-04-18T15:00:29.622Z,14.25
2023-04-18T15:02:58.301Z,14.59
2023-04-18T15:05:27.307Z,14.48
2023-04-18T15:07:56.457Z,14.72
2023-04-18T15:10:25.277Z,14.00
2023-04-18T15:12:54.391Z,14.62
2023-04-18T15:15:22.825Z,14.69
2023-04-18T15:17:53.406Z,14.46
2023-04-18T15:20:28.441Z,14.46
2023-04-18T15:22:57.048Z,14.62
2023-04-18T15:25:26.360Z,14.36
2023-04-18T15:27:55.220Z,14.46
2023-04-18T15:30:24.090Z,14.73
2023-04-18T15:32:56.005Z,14.70
2023-04-18T15:35:25.225Z,14.74
2023-04-18T15:37:55.640Z,14.78
2023-04-18T15:40:24.580Z,14.77
2023-04-18T15:42:54.425Z,14.63
2023-04-18T15:45:26.769Z,14.60
2023-04-18T15:47:57.067Z,14.50
2023-04-18T15:50:26.156Z,14.26
2023-04-18T15:52:55.142Z,14.28
2023-04-18T15:55:23.882Z,14.36
2023-04-18T15:57:52.653Z,14.29
2023-04-18T16:00:22.926Z,14.44
2023-04-18T16:02:52.313Z,14.37
2023-04-18T16:05:22.780Z,14.30
2023-04-18T16:07:52.591Z,14.22
2023-04-18T16:10:22.118Z,14.18
2023-04-18T16:12:51.556Z,13.68
2023-04-18T16:15:20.312Z,14.11
2023-04-18T16:17:49.717Z,14.15
2023-04-18T16:20:19.286Z,14.13
2023-04-18T16:22:50.067Z,14.10
2023-04-18T16:25:19.187Z,14.12
2023-04-18T16:27:48.056Z,14.02
2023-04-18T16:30:17.063Z,13.98
2023-04-18T16:32:46.498Z,13.92
2023-04-18T16:35:15.760Z,13.79
2023-04-18T16:37:45.084Z,13.82
2023-04-18T16:40:16.072Z,13.60
2023-04-18T16:42:45.182Z,13.60
2023-04-18T16:45:14.218Z,13.60
2023-04-18T16:47:43.148Z,13.49
2023-04-18T16:50:12.428Z,13.53
2023-04-18T16:52:41.702Z,13.51
2023-04-18T16:55:11.272Z,13.52
2023-04-18T16:57:41.198Z,13.28
2023-04-18T17:00:13.762Z,12.64
2023-04-18T17:02:43.454Z,13.12
2023-04-18T17:05:12.434Z,12.43
2023-04-18T17:07:41.096Z,13.00
2023-04-18T17:10:11.221Z,12.72
2023-04-18T17:12:41.187Z,13.05
2023-04-18T17:15:10.109Z,13.04
2023-04-18T17:17:38.793Z,13.08
2023-04-18T17:20:09.029Z,12.95
2023-04-18T17:22:37.701Z,12.82
2023-04-18T17:25:08.132Z,13.04
2023-04-18T17:27:36.662Z,12.98
2023-04-18T17:30:07.673Z,12.91
2023-04-18T17:32:36.461Z,12.90
2023-04-18T17:35:06.149Z,12.66
2023-04-18T17:37:34.477Z,12.82
2023-04-18T17:40:06.586Z,12.56
2023-04-18T17:42:36.044Z,12.15
2023-04-18T17:45:07.766Z,12.73
2023-04-18T17:47:36.902Z,12.05
2023-04-18T17:50:05.598Z,12.54
2023-04-18T17:52:34.073Z,12.44
2023-04-18T17:55:02.412Z,12.05
2023-04-18T17:57:33.182Z,12.30
2023-04-18T18:00:01.680Z,12.09
2023-04-18T18:02:31.845Z,12.02
2023-04-18T18:05:00.266Z,11.92
2023-04-18T18:07:31.205Z,11.81
2023-04-18T18:10:00.045Z,11.75
2023-04-18T18:12:28.478Z,11.79
2023-04-18T18:14:58.224Z,11.76
2023-04-18T18:17:26.571Z,11.81
2023-04-18T18:19:56.433Z,11.66
2023-04-18T18:22:26.225Z,11.70
2023-04-18T18:24:54.580Z,11.62
2023-04-18T18:27:22.905Z,11.43
2023-04-18T18:29:51.368Z,11.36
2023-04-18T18:32:20.681Z,11.65
2023-04-18T18:34:49.091Z,11.62
2023-04-18T18:37:19.938Z,11.52
2023-04-18T18:39:48.258Z,11.66
2023-04-18T18:42:16.856Z,11.70
2023-04-18T18:44:45.217Z,11.40
2023-04-18T18:47:13.700Z,11.62
2023-04-18T18:49:42.392Z,11.62
2023-04-18T18:52:11.148Z,11.46
2023-04-18T18:54:40.894Z,11.34
2023-04-18T18:57:09.268Z,11.47
2023-04-18T18:59:37.584Z,11.38
2023-04-18T19:02:53.364Z,11.32
2023-04-18T19:05:22.192Z,11.25
2023-04-18T19:07:51.620Z,10.95
2023-04-18T19:10:21.466Z,11.00
2023-04-18T19:12:49.930Z,11.37
2023-04-18T19:15:18.208Z,10.91
2023-04-18T19:17:46.950Z,11.02
2023-04-18T19:20:15.480Z,11.12
2023-04-18T19:22:43.851Z,11.33
2023-04-18T19:25:12.407Z,10.70
2023-04-18T19:27:42.445Z,10.44
2023-04-18T19:30:12.245Z,11.02
2023-04-18T19:32:40.941Z,11.27
2023-04-18T19:35:13.385Z,11.18
2023-04-18T19:37:42.200Z,11.21
2023-04-18T19:40:12.476Z,11.26
2023-04-18T19:42:42.436Z,10.52
2023-04-18T19:45:16.286Z,10.91
2023-04-18T19:47:45.448Z,11.17
2023-04-18T19:50:14.000Z,11.25
2023-04-18T19:52:42.474Z,11.22
2023-04-18T19:55:12.489Z,11.34
2023-04-18T19:57:42.469Z,11.20
2023-04-18T20:00:13.472Z,10.91
2023-04-18T20:02:43.004Z,11.32
2023-04-18T20:05:12.957Z,11.02
2023-04-18T20:07:41.862Z,11.16
2023-04-18T20:10:11.092Z,11.23
2023-04-18T20:12:39.661Z,11.20
2023-04-18T20:15:11.077Z,11.05
2023-04-18T20:17:39.957Z,11.27
2023-04-18T20:20:11.729Z,11.38
2023-04-18T20:22:56.240Z,11.37
2023-04-18T20:25:24.714Z,11.13
2023-04-18T20:27:53.403Z,11.31
2023-04-18T20:30:24.500Z,10.95
2023-04-18T20:32:53.347Z,11.20
2023-04-18T20:35:22.535Z,11.27
2023-04-18T20:37:51.113Z,11.24
2023-04-18T20:40:20.863Z,10.93
2023-04-18T20:42:52.683Z,11.02
2023-04-18T20:45:24.332Z,11.19
2023-04-18T20:48:05.018Z,11.05
2023-04-18T20:50:41.616Z,11.26
2023-04-18T20:53:10.734Z,11.19
2023-04-18T20:55:40.833Z,11.40
2023-04-18T20:58:09.813Z,9.44
2023-04-18T21:00:41.931Z,11.30
2023-04-18T21:03:11.664Z,11.19
2023-04-18T21:05:41.839Z,11.33
2023-04-18T21:08:11.216Z,11.38
2023-04-18T21:10:40.662Z,11.34
2023-04-18T21:13:09.411Z,11.27
2023-04-18T21:15:40.737Z,11.39
2023-04-18T21:18:09.977Z,11.39
2023-04-18T21:20:38.807Z,11.13
2023-04-18T21:23:08.167Z,11.35
2023-04-18T21:25:36.985Z,10.57
2023-04-18T21:28:08.092Z,11.52
2023-04-18T21:30:36.729Z,11.57
2023-04-18T21:33:07.851Z,11.41
2023-04-18T21:35:37.123Z,11.44
2023-04-18T21:38:09.434Z,11.33
2023-04-18T21:40:45.939Z,11.47
2023-04-18T21:43:14.862Z,11.48
2023-04-18T21:45:44.055Z,11.45
2023-04-18T21:48:15.197Z,11.10
2023-04-18T21:50:44.501Z,11.20
2023-04-18T21:53:24.885Z,11.49
2023-04-18T21:55:54.313Z,11.65
2023-04-18T21:58:23.393Z,11.48
2023-04-18T22:00:52.226Z,11.65
2023-04-18T22:03:22.775Z,11.77
2023-04-18T22:05:53.676Z,11.61
2023-04-18T22:08:23.958Z,11.72
2023-04-18T22:10:55.772Z,11.75
2023-04-18T22:13:26.398Z,11.88
2023-04-18T22:15:57.029Z,11.77
2023-04-18T22:18:30.843Z,11.40
2023-04-18T22:21:00.319Z,11.49
2023-04-18T22:23:31.483Z,11.58
2023-04-18T22:26:00.707Z,11.52
2023-04-18T22:28:29.701Z,11.39
2023-04-18T22:30:58.669Z,11.60
2023-04-18T22:33:29.085Z,9.90
2023-04-18T22:35:58.330Z,11.52
2023-04-18T22:38:26.905Z,11.55
2023-04-18T22:40:55.615Z,11.43
2023-04-18T22:43:27.678Z,11.67
2023-04-18T22:45:57.058Z,11.65
2023-04-18T22:48:26.016Z,11.58
2023-04-18T22:50:56.744Z,11.67
2023-04-18T22:53:35.037Z,11.62
2023-04-18T22:56:03.491Z,11.55
2023-04-18T22:58:42.969Z,11.02
2023-04-18T23:01:13.279Z,11.67
2023-04-18T23:03:41.933Z,11.67
2023-04-18T23:06:12.460Z,11.51
2023-04-18T23:08:42.054Z,11.74
2023-04-18T23:11:14.225Z,11.77
2023-04-18T23:13:45.908Z,11.66
2023-04-18T23:16:34.636Z,11.74
2023-04-18T23:19:23.463Z,11.57
2023-04-18T23:22:11.396Z,11.59
2023-04-18T23:24:46.436Z,11.54
2023-04-18T23:27:29.441Z,11.50
2023-04-18T23:30:13.885Z,11.42
2023-04-18T23:32:59.154Z,11.35
2023-04-18T23:35:56.080Z,11.43
2023-04-18T23:38:43.334Z,11.42
2023-04-18T23:41:12.206Z,11.04
2023-04-18T23:43:41.136Z,11.32
2023-04-18T23:46:10.848Z,11.05
2023-04-18T23:48:45.255Z,11.41
2023-04-18T23:51:18.954Z,11.41
2023-04-18T23:53:49.391Z,11.47
2023-04-18T23:56:18.686Z,11.57
2023-04-18T23:58:47.010Z,11.55
